sensor_id;sensor_type;location;lat;lon;timestamp;temperature;humidity
39095;DHT22;24840;47.508;19.376;2023-07-31T00:01:19;17.20;99.90
39095;DHT22;24840;47.508;19.376;2023-07-31T00:03:45;17.20;99.90
39095;DHT22;24840;47.508;19.376;2023-07-31T00:06:11;17.20;99.90
39095;DHT22;24840;47.508;19.376;2023-07-31T00:08:36;17.20;99.90
39095;DHT22;24840;47.508;19.376;2023-07-31T00:11:02;17.30;99.90
39095;DHT22;24840;47.508;19.376;2023-07-31T00:13:27;17.30;99.90
39095;DHT22;24840;47.508;19.376;2023-07-31T00:15:53;17.30;99.90
39095;DHT22;24840;47.508;19.376;2023-07-31T00:18:18;17.30;99.90
39095;DHT22;24840;47.508;19.376;2023-07-31T00:20:44;17.30;99.90
39095;DHT22;24840;47.508;19.376;2023-07-31T00:23:10;17.30;99.90
39095;DHT22;24840;47.508;19.376;2023-07-31T00:25:35;17.30;99.90
39095;DHT22;24840;47.508;19.376;2023-07-31T00:28:01;17.30;99.90
39095;DHT22;24840;47.508;19.376;2023-07-31T00:30:26;17.30;99.90
39095;DHT22;24840;47.508;19.376;2023-07-31T00:32:52;17.20;99.90
39095;DHT22;24840;47.508;19.376;2023-07-31T00:35:18;17.20;99.90
39095;DHT22;24840;47.508;19.376;2023-07-31T00:37:43;17.20;99.90
39095;DHT22;24840;47.508;19.376;2023-07-31T00:40:09;17.20;99.90
39095;DHT22;24840;47.508;19.376;2023-07-31T00:42:34;17.30;99.90
39095;DHT22;24840;47.508;19.376;2023-07-31T00:45:00;17.10;99.90
39095;DHT22;24840;47.508;19.376;2023-07-31T00:47:25;17.00;99.90
39095;DHT22;24840;47.508;19.376;2023-07-31T00:49:51;17.00;99.90
39095;DHT22;24840;47.508;19.376;2023-07-31T00:52:18;17.10;99.90
39095;DHT22;24840;47.508;19.376;2023-07-31T00:54:44;17.10;99.90
39095;DHT22;24840;47.508;19.376;2023-07-31T00:57:09;17.20;99.90
39095;DHT22;24840;47.508;19.376;2023-07-31T00:59:35;17.20;99.90
39095;DHT22;24840;47.508;19.376;2023-07-31T01:02:00;17.10;99.90
39095;DHT22;24840;47.508;19.376;2023-07-31T01:04:26;17.10;99.90
39095;DHT22;24840;47.508;19.376;2023-07-31T01:12:16;17.20;99.90
39095;DHT22;24840;47.508;19.376;2023-07-31T01:14:52;17.10;99.90
39095;DHT22;24840;47.508;19.376;2023-07-31T01:17:26;17.10;99.90
39095;DHT22;24840;47.508;19.376;2023-07-31T01:19:53;17.20;99.90
39095;DHT22;24840;47.508;19.376;2023-07-31T01:27:56;17.00;99.90
39095;DHT22;24840;47.508;19.376;2023-07-31T01:30:25;16.80;99.90
39095;DHT22;24840;47.508;19.376;2023-07-31T01:32:52;16.70;99.90
39095;DHT22;24840;47.508;19.376;2023-07-31T01:35:18;16.80;99.90
39095;DHT22;24840;47.508;19.376;2023-07-31T01:37:44;16.90;99.90
39095;DHT22;24840;47.508;19.376;2023-07-31T01:40:10;16.90;99.90
39095;DHT22;24840;47.508;19.376;2023-07-31T01:42:36;16.90;99.90
39095;DHT22;24840;47.508;19.376;2023-07-31T01:45:01;16.90;99.90
39095;DHT22;24840;47.508;19.376;2023-07-31T01:47:27;16.80;99.90
39095;DHT22;24840;47.508;19.376;2023-07-31T01:49:52;16.80;99.90
39095;DHT22;24840;47.508;19.376;2023-07-31T01:52:18;16.80;99.90
39095;DHT22;24840;47.508;19.376;2023-07-31T01:54:43;16.70;99.90
39095;DHT22;24840;47.508;19.376;2023-07-31T01:57:09;16.80;99.90
39095;DHT22;24840;47.508;19.376;2023-07-31T01:59:35;16.80;99.90
39095;DHT22;24840;47.508;19.376;2023-07-31T02:02:00;16.80;99.90
39095;DHT22;24840;47.508;19.376;2023-07-31T02:04:26;16.90;99.90
39095;DHT22;24840;47.508;19.376;2023-07-31T02:06:52;16.80;99.90
39095;DHT22;24840;47.508;19.376;2023-07-31T02:09:17;16.60;99.90
39095;DHT22;24840;47.508;19.376;2023-07-31T02:11:43;16.60;99.90
39095;DHT22;24840;47.508;19.376;2023-07-31T02:14:09;16.50;99.90
39095;DHT22;24840;47.508;19.376;2023-07-31T02:16:34;16.50;99.90
39095;DHT22;24840;47.508;19.376;2023-07-31T02:19:00;16.70;99.90
39095;DHT22;24840;47.508;19.376;2023-07-31T02:21:25;16.60;99.90
39095;DHT22;24840;47.508;19.376;2023-07-31T02:23:51;16.50;99.90
39095;DHT22;24840;47.508;19.376;2023-07-31T02:26:16;16.40;99.90
39095;DHT22;24840;47.508;19.376;2023-07-31T02:28:42;16.40;99.90
39095;DHT22;24840;47.508;19.376;2023-07-31T02:31:08;16.30;99.90
39095;DHT22;24840;47.508;19.376;2023-07-31T02:33:34;16.20;99.90
39095;DHT22;24840;47.508;19.376;2023-07-31T02:35:59;16.30;99.90
39095;DHT22;24840;47.508;19.376;2023-07-31T02:38:25;16.20;99.90
39095;DHT22;24840;47.508;19.376;2023-07-31T02:40:50;16.30;99.90
39095;DHT22;24840;47.508;19.376;2023-07-31T02:43:16;16.50;99.90
39095;DHT22;24840;47.508;19.376;2023-07-31T02:45:42;16.50;99.90
39095;DHT22;24840;47.508;19.376;2023-07-31T02:48:07;16.50;99.90
39095;DHT22;24840;47.508;19.376;2023-07-31T02:50:33;16.40;99.90
39095;DHT22;24840;47.508;19.376;2023-07-31T02:52:58;16.20;99.90
39095;DHT22;24840;47.508;19.376;2023-07-31T02:55:24;16.20;99.90
39095;DHT22;24840;47.508;19.376;2023-07-31T02:57:49;16.40;99.90
39095;DHT22;24840;47.508;19.376;2023-07-31T03:00:17;15.90;99.90
39095;DHT22;24840;47.508;19.376;2023-07-31T03:02:43;15.40;99.90
39095;DHT22;24840;47.508;19.376;2023-07-31T03:05:08;15.80;99.90
39095;DHT22;24840;47.508;19.376;2023-07-31T03:07:34;15.80;99.90
39095;DHT22;24840;47.508;19.376;2023-07-31T03:09:59;15.70;99.90
39095;DHT22;24840;47.508;19.376;2023-07-31T03:12:25;15.80;99.90
39095;DHT22;24840;47.508;19.376;2023-07-31T03:14:50;16.00;99.90
39095;DHT22;24840;47.508;19.376;2023-07-31T03:17:16;16.00;99.90
39095;DHT22;24840;47.508;19.376;2023-07-31T03:19:41;16.10;99.90
39095;DHT22;24840;47.508;19.376;2023-07-31T03:22:07;16.20;99.90
39095;DHT22;24840;47.508;19.376;2023-07-31T03:24:32;16.00;99.90
39095;DHT22;24840;47.508;19.376;2023-07-31T03:26:58;16.10;99.90
39095;DHT22;24840;47.508;19.376;2023-07-31T03:29:24;16.20;99.90
39095;DHT22;24840;47.508;19.376;2023-07-31T03:31:49;16.20;99.90
39095;DHT22;24840;47.508;19.376;2023-07-31T03:34:15;15.70;99.90
39095;DHT22;24840;47.508;19.376;2023-07-31T03:36:40;15.40;99.90
39095;DHT22;24840;47.508;19.376;2023-07-31T03:39:06;15.60;99.90
39095;DHT22;24840;47.508;19.376;2023-07-31T03:41:31;15.80;99.90
39095;DHT22;24840;47.508;19.376;2023-07-31T03:43:57;16.10;99.90
39095;DHT22;24840;47.508;19.376;2023-07-31T03:46:23;16.10;99.90
39095;DHT22;24840;47.508;19.376;2023-07-31T03:48:49;16.00;99.90
39095;DHT22;24840;47.508;19.376;2023-07-31T03:51:16;15.70;99.90
39095;DHT22;24840;47.508;19.376;2023-07-31T03:53:43;16.00;99.90
39095;DHT22;24840;47.508;19.376;2023-07-31T03:56:08;16.10;99.90
39095;DHT22;24840;47.508;19.376;2023-07-31T03:58:34;16.10;99.90
39095;DHT22;24840;47.508;19.376;2023-07-31T04:01:01;16.10;99.90
39095;DHT22;24840;47.508;19.376;2023-07-31T04:03:26;16.20;99.90
39095;DHT22;24840;47.508;19.376;2023-07-31T04:05:53;16.10;99.90
39095;DHT22;24840;47.508;19.376;2023-07-31T04:08:19;16.20;99.90
39095;DHT22;24840;47.508;19.376;2023-07-31T04:10:45;16.30;99.90
39095;DHT22;24840;47.508;19.376;2023-07-31T04:13:10;16.30;99.90
39095;DHT22;24840;47.508;19.376;2023-07-31T04:15:36;16.10;99.90
39095;DHT22;24840;47.508;19.376;2023-07-31T04:18:01;16.30;99.90
39095;DHT22;24840;47.508;19.376;2023-07-31T04:20:27;16.40;99.90
39095;DHT22;24840;47.508;19.376;2023-07-31T04:22:53;16.50;99.90
39095;DHT22;24840;47.508;19.376;2023-07-31T04:25:18;16.30;99.90
39095;DHT22;24840;47.508;19.376;2023-07-31T04:27:44;16.30;99.90
39095;DHT22;24840;47.508;19.376;2023-07-31T04:30:09;16.20;99.90
39095;DHT22;24840;47.508;19.376;2023-07-31T04:32:35;16.20;99.90
39095;DHT22;24840;47.508;19.376;2023-07-31T04:35:01;16.30;99.90
39095;DHT22;24840;47.508;19.376;2023-07-31T04:37:26;16.30;99.90
39095;DHT22;24840;47.508;19.376;2023-07-31T04:39:52;16.40;99.90
39095;DHT22;24840;47.508;19.376;2023-07-31T04:42:18;16.40;99.90
39095;DHT22;24840;47.508;19.376;2023-07-31T04:44:43;16.40;99.90
39095;DHT22;24840;47.508;19.376;2023-07-31T04:47:09;16.50;99.90
39095;DHT22;24840;47.508;19.376;2023-07-31T04:49:34;16.60;99.90
39095;DHT22;24840;47.508;19.376;2023-07-31T04:52:00;16.70;99.90
39095;DHT22;24840;47.508;19.376;2023-07-31T04:54:25;16.70;99.90
39095;DHT22;24840;47.508;19.376;2023-07-31T04:56:51;16.70;99.90
39095;DHT22;24840;47.508;19.376;2023-07-31T04:59:17;16.90;99.90
39095;DHT22;24840;47.508;19.376;2023-07-31T05:01:43;16.90;99.90
39095;DHT22;24840;47.508;19.376;2023-07-31T05:04:12;17.00;99.90
39095;DHT22;24840;47.508;19.376;2023-07-31T05:06:38;17.10;99.90
39095;DHT22;24840;47.508;19.376;2023-07-31T05:09:04;17.10;99.90
39095;DHT22;24840;47.508;19.376;2023-07-31T05:11:29;17.20;99.90
39095;DHT22;24840;47.508;19.376;2023-07-31T05:13:55;17.30;99.90
39095;DHT22;24840;47.508;19.376;2023-07-31T05:16:20;17.40;99.90
39095;DHT22;24840;47.508;19.376;2023-07-31T05:18:46;17.40;99.90
39095;DHT22;24840;47.508;19.376;2023-07-31T05:21:11;17.40;99.90
39095;DHT22;24840;47.508;19.376;2023-07-31T05:23:37;17.40;99.90
39095;DHT22;24840;47.508;19.376;2023-07-31T05:26:05;17.50;99.90
39095;DHT22;24840;47.508;19.376;2023-07-31T05:28:31;17.50;99.90
39095;DHT22;24840;47.508;19.376;2023-07-31T05:31:01;17.70;99.90
39095;DHT22;24840;47.508;19.376;2023-07-31T05:33:27;17.70;99.90
39095;DHT22;24840;47.508;19.376;2023-07-31T05:35:52;17.80;99.90
39095;DHT22;24840;47.508;19.376;2023-07-31T05:38:18;17.90;99.90
39095;DHT22;24840;47.508;19.376;2023-07-31T05:40:43;17.90;99.90
39095;DHT22;24840;47.508;19.376;2023-07-31T05:43:09;18.00;99.90
39095;DHT22;24840;47.508;19.376;2023-07-31T05:45:35;18.10;99.90
39095;DHT22;24840;47.508;19.376;2023-07-31T05:48:00;18.30;99.90
39095;DHT22;24840;47.508;19.376;2023-07-31T05:50:26;18.50;99.90
39095;DHT22;24840;47.508;19.376;2023-07-31T05:52:51;18.50;99.90
39095;DHT22;24840;47.508;19.376;2023-07-31T05:55:17;18.80;99.90
39095;DHT22;24840;47.508;19.376;2023-07-31T05:57:43;19.00;99.90
39095;DHT22;24840;47.508;19.376;2023-07-31T06:00:11;19.20;99.90
39095;DHT22;24840;47.508;19.376;2023-07-31T06:02:37;19.50;99.90
39095;DHT22;24840;47.508;19.376;2023-07-31T06:05:03;19.60;99.90
39095;DHT22;24840;47.508;19.376;2023-07-31T06:07:29;19.70;99.90
39095;DHT22;24840;47.508;19.376;2023-07-31T06:09:55;19.50;99.90
39095;DHT22;24840;47.508;19.376;2023-07-31T06:12:20;19.30;99.90
39095;DHT22;24840;47.508;19.376;2023-07-31T06:14:46;19.40;99.90
39095;DHT22;24840;47.508;19.376;2023-07-31T06:17:12;19.50;99.90
39095;DHT22;24840;47.508;19.376;2023-07-31T06:19:37;19.60;99.90
39095;DHT22;24840;47.508;19.376;2023-07-31T06:22:03;19.80;99.90
39095;DHT22;24840;47.508;19.376;2023-07-31T06:24:28;19.90;99.90
39095;DHT22;24840;47.508;19.376;2023-07-31T06:26:55;20.10;99.90
39095;DHT22;24840;47.508;19.376;2023-07-31T06:29:20;19.80;99.90
39095;DHT22;24840;47.508;19.376;2023-07-31T06:31:46;19.70;99.90
39095;DHT22;24840;47.508;19.376;2023-07-31T06:34:11;19.50;99.90
39095;DHT22;24840;47.508;19.376;2023-07-31T06:36:37;19.50;99.90
39095;DHT22;24840;47.508;19.376;2023-07-31T06:39:02;19.60;99.90
39095;DHT22;24840;47.508;19.376;2023-07-31T06:41:29;19.70;99.90
39095;DHT22;24840;47.508;19.376;2023-07-31T06:43:54;20.00;99.90
39095;DHT22;24840;47.508;19.376;2023-07-31T06:46:20;20.30;99.90
39095;DHT22;24840;47.508;19.376;2023-07-31T06:48:45;20.60;99.90
39095;DHT22;24840;47.508;19.376;2023-07-31T06:51:11;20.80;99.90
39095;DHT22;24840;47.508;19.376;2023-07-31T06:53:36;21.00;99.90
39095;DHT22;24840;47.508;19.376;2023-07-31T06:56:02;21.20;99.90
39095;DHT22;24840;47.508;19.376;2023-07-31T06:58:28;21.10;99.90
39095;DHT22;24840;47.508;19.376;2023-07-31T07:00:53;20.70;99.90
39095;DHT22;24840;47.508;19.376;2023-07-31T07:03:19;20.90;99.90
39095;DHT22;24840;47.508;19.376;2023-07-31T07:05:45;21.20;99.90
39095;DHT22;24840;47.508;19.376;2023-07-31T07:08:11;21.70;99.90
39095;DHT22;24840;47.508;19.376;2023-07-31T07:10:37;22.20;99.90
39095;DHT22;24840;47.508;19.376;2023-07-31T07:13:02;22.40;99.90
39095;DHT22;24840;47.508;19.376;2023-07-31T07:15:28;22.50;99.90
39095;DHT22;24840;47.508;19.376;2023-07-31T07:17:54;22.40;97.50
39095;DHT22;24840;47.508;19.376;2023-07-31T07:20:19;22.40;98.50
39095;DHT22;24840;47.508;19.376;2023-07-31T07:22:45;22.40;99.10
39095;DHT22;24840;47.508;19.376;2023-07-31T07:25:11;22.50;98.50
39095;DHT22;24840;47.508;19.376;2023-07-31T07:27:39;22.70;99.50
39095;DHT22;24840;47.508;19.376;2023-07-31T07:30:05;22.60;97.90
39095;DHT22;24840;47.508;19.376;2023-07-31T07:32:30;22.40;97.20
39095;DHT22;24840;47.508;19.376;2023-07-31T07:34:56;22.40;97.80
39095;DHT22;24840;47.508;19.376;2023-07-31T07:37:22;22.20;97.40
39095;DHT22;24840;47.508;19.376;2023-07-31T07:39:47;22.00;97.90
39095;DHT22;24840;47.508;19.376;2023-07-31T07:42:13;21.80;98.20
39095;DHT22;24840;47.508;19.376;2023-07-31T07:44:38;21.70;99.10
39095;DHT22;24840;47.508;19.376;2023-07-31T07:47:04;22.00;99.90
39095;DHT22;24840;47.508;19.376;2023-07-31T07:49:31;22.00;99.10
39095;DHT22;24840;47.508;19.376;2023-07-31T07:51:56;21.90;99.60
39095;DHT22;24840;47.508;19.376;2023-07-31T07:54:22;22.10;99.30
39095;DHT22;24840;47.508;19.376;2023-07-31T07:56:49;22.20;99.20
39095;DHT22;24840;47.508;19.376;2023-07-31T07:59:15;21.70;97.50
39095;DHT22;24840;47.508;19.376;2023-07-31T08:01:41;21.80;97.70
39095;DHT22;24840;47.508;19.376;2023-07-31T08:04:06;22.00;98.40
39095;DHT22;24840;47.508;19.376;2023-07-31T08:06:32;22.00;98.10
39095;DHT22;24840;47.508;19.376;2023-07-31T08:08:57;22.00;98.10
39095;DHT22;24840;47.508;19.376;2023-07-31T08:11:23;22.50;98.50
39095;DHT22;24840;47.508;19.376;2023-07-31T08:13:49;23.40;97.60
39095;DHT22;24840;47.508;19.376;2023-07-31T08:16:15;23.90;94.90
39095;DHT22;24840;47.508;19.376;2023-07-31T08:18:40;24.70;94.40
39095;DHT22;24840;47.508;19.376;2023-07-31T08:21:07;25.50;91.80
39095;DHT22;24840;47.508;19.376;2023-07-31T08:23:33;25.20;88.30
39095;DHT22;24840;47.508;19.376;2023-07-31T08:25:58;25.30;88.40
39095;DHT22;24840;47.508;19.376;2023-07-31T08:28:24;25.40;90.00
39095;DHT22;24840;47.508;19.376;2023-07-31T08:30:50;25.00;85.90
39095;DHT22;24840;47.508;19.376;2023-07-31T08:33:16;23.90;87.00
39095;DHT22;24840;47.508;19.376;2023-07-31T08:35:41;23.30;90.60
39095;DHT22;24840;47.508;19.376;2023-07-31T08:38:07;23.00;89.50
39095;DHT22;24840;47.508;19.376;2023-07-31T08:40:35;22.80;90.30
39095;DHT22;24840;47.508;19.376;2023-07-31T08:43:01;22.90;89.80
39095;DHT22;24840;47.508;19.376;2023-07-31T08:45:27;24.10;91.40
39095;DHT22;24840;47.508;19.376;2023-07-31T08:47:55;25.00;89.20
39095;DHT22;24840;47.508;19.376;2023-07-31T08:50:22;25.50;85.40
39095;DHT22;24840;47.508;19.376;2023-07-31T08:52:48;25.70;84.00
39095;DHT22;24840;47.508;19.376;2023-07-31T08:55:14;25.90;85.00
39095;DHT22;24840;47.508;19.376;2023-07-31T08:57:40;25.90;81.70
39095;DHT22;24840;47.508;19.376;2023-07-31T09:00:07;26.10;84.20
39095;DHT22;24840;47.508;19.376;2023-07-31T09:02:46;26.50;84.40
39095;DHT22;24840;47.508;19.376;2023-07-31T09:05:11;26.90;79.60
39095;DHT22;24840;47.508;19.376;2023-07-31T09:07:37;27.00;78.50
39095;DHT22;24840;47.508;19.376;2023-07-31T09:10:03;26.50;77.70
39095;DHT22;24840;47.508;19.376;2023-07-31T09:12:29;25.80;78.70
39095;DHT22;24840;47.508;19.376;2023-07-31T09:14:58;25.90;77.60
39095;DHT22;24840;47.508;19.376;2023-07-31T09:17:30;26.30;74.90
39095;DHT22;24840;47.508;19.376;2023-07-31T09:19:56;26.00;77.20
39095;DHT22;24840;47.508;19.376;2023-07-31T09:22:32;26.10;75.00
39095;DHT22;24840;47.508;19.376;2023-07-31T09:25:03;26.70;77.10
39095;DHT22;24840;47.508;19.376;2023-07-31T09:27:35;26.80;75.30
39095;DHT22;24840;47.508;19.376;2023-07-31T09:30:10;27.70;77.30
39095;DHT22;24840;47.508;19.376;2023-07-31T09:32:36;27.70;77.00
39095;DHT22;24840;47.508;19.376;2023-07-31T09:35:48;27.70;72.50
39095;DHT22;24840;47.508;19.376;2023-07-31T09:37:53;27.70;74.30
39095;DHT22;24840;47.508;19.376;2023-07-31T09:40:28;28.60;75.90
39095;DHT22;24840;47.508;19.376;2023-07-31T09:42:57;29.30;73.40
39095;DHT22;24840;47.508;19.376;2023-07-31T09:45:24;29.80;73.60
39095;DHT22;24840;47.508;19.376;2023-07-31T09:47:50;29.90;71.40
39095;DHT22;24840;47.508;19.376;2023-07-31T09:50:15;29.70;71.60
39095;DHT22;24840;47.508;19.376;2023-07-31T09:52:44;28.60;67.60
39095;DHT22;24840;47.508;19.376;2023-07-31T09:55:10;28.60;71.60
39095;DHT22;24840;47.508;19.376;2023-07-31T09:57:43;27.70;69.30
39095;DHT22;24840;47.508;19.376;2023-07-31T10:00:09;27.80;70.80
39095;DHT22;24840;47.508;19.376;2023-07-31T10:02:36;28.40;72.20
39095;DHT22;24840;47.508;19.376;2023-07-31T10:05:02;28.90;70.30
39095;DHT22;24840;47.508;19.376;2023-07-31T10:07:28;29.50;67.60
39095;DHT22;24840;47.508;19.376;2023-07-31T10:09:55;29.00;67.00
39095;DHT22;24840;47.508;19.376;2023-07-31T10:12:22;28.80;68.50
39095;DHT22;24840;47.508;19.376;2023-07-31T10:14:53;28.80;68.20
39095;DHT22;24840;47.508;19.376;2023-07-31T10:17:19;29.20;69.40
39095;DHT22;24840;47.508;19.376;2023-07-31T10:19:46;28.60;65.10
39095;DHT22;24840;47.508;19.376;2023-07-31T10:22:12;29.50;65.40
39095;DHT22;24840;47.508;19.376;2023-07-31T10:24:38;30.10;67.10
39095;DHT22;24840;47.508;19.376;2023-07-31T10:27:04;29.80;66.80
39095;DHT22;24840;47.508;19.376;2023-07-31T10:29:30;29.90;67.30
39095;DHT22;24840;47.508;19.376;2023-07-31T10:31:57;29.70;62.70
39095;DHT22;24840;47.508;19.376;2023-07-31T10:34:23;30.30;64.30
39095;DHT22;24840;47.508;19.376;2023-07-31T10:36:49;30.60;66.30
39095;DHT22;24840;47.508;19.376;2023-07-31T10:39:33;30.70;65.30
39095;DHT22;24840;47.508;19.376;2023-07-31T10:41:59;30.90;63.50
39095;DHT22;24840;47.508;19.376;2023-07-31T10:44:24;31.40;63.00
39095;DHT22;24840;47.508;19.376;2023-07-31T10:46:54;31.50;60.80
39095;DHT22;24840;47.508;19.376;2023-07-31T10:49:22;31.40;61.90
39095;DHT22;24840;47.508;19.376;2023-07-31T10:51:48;31.20;61.60
39095;DHT22;24840;47.508;19.376;2023-07-31T10:54:14;31.70;59.50
39095;DHT22;24840;47.508;19.376;2023-07-31T10:56:40;30.20;60.70
39095;DHT22;24840;47.508;19.376;2023-07-31T10:59:09;30.90;62.10
39095;DHT22;24840;47.508;19.376;2023-07-31T11:01:59;31.10;60.50
39095;DHT22;24840;47.508;19.376;2023-07-31T11:04:26;30.80;61.20
39095;DHT22;24840;47.508;19.376;2023-07-31T11:06:55;31.00;64.00
39095;DHT22;24840;47.508;19.376;2023-07-31T11:09:22;31.90;62.00
39095;DHT22;24840;47.508;19.376;2023-07-31T11:11:47;32.20;60.30
39095;DHT22;24840;47.508;19.376;2023-07-31T11:14:15;32.20;60.40
39095;DHT22;24840;47.508;19.376;2023-07-31T11:16:41;32.20;59.90
39095;DHT22;24840;47.508;19.376;2023-07-31T11:19:08;32.40;61.90
39095;DHT22;24840;47.508;19.376;2023-07-31T11:21:33;32.00;59.30
39095;DHT22;24840;47.508;19.376;2023-07-31T11:23:59;31.30;58.70
39095;DHT22;24840;47.508;19.376;2023-07-31T11:26:25;30.80;59.40
39095;DHT22;24840;47.508;19.376;2023-07-31T11:28:51;31.60;63.00
39095;DHT22;24840;47.508;19.376;2023-07-31T11:31:17;32.00;60.40
39095;DHT22;24840;47.508;19.376;2023-07-31T11:33:43;32.30;56.50
39095;DHT22;24840;47.508;19.376;2023-07-31T11:36:18;32.00;55.70
39095;DHT22;24840;47.508;19.376;2023-07-31T11:38:44;32.30;59.10
39095;DHT22;24840;47.508;19.376;2023-07-31T11:41:09;32.60;56.20
39095;DHT22;24840;47.508;19.376;2023-07-31T11:43:35;32.40;58.00
39095;DHT22;24840;47.508;19.376;2023-07-31T11:46:02;32.50;59.50
39095;DHT22;24840;47.508;19.376;2023-07-31T11:48:29;33.60;55.40
39095;DHT22;24840;47.508;19.376;2023-07-31T11:50:58;32.60;55.60
39095;DHT22;24840;47.508;19.376;2023-07-31T11:53:35;32.60;57.60
39095;DHT22;24840;47.508;19.376;2023-07-31T11:56:02;32.80;58.40
39095;DHT22;24840;47.508;19.376;2023-07-31T11:58:30;31.40;57.60
39095;DHT22;24840;47.508;19.376;2023-07-31T12:00:59;31.10;60.20
39095;DHT22;24840;47.508;19.376;2023-07-31T12:03:26;31.10;58.20
39095;DHT22;24840;47.508;19.376;2023-07-31T12:05:52;30.90;58.50
39095;DHT22;24840;47.508;19.376;2023-07-31T12:08:20;31.20;61.40
39095;DHT22;24840;47.508;19.376;2023-07-31T12:10:45;32.50;59.10
39095;DHT22;24840;47.508;19.376;2023-07-31T12:13:19;32.50;58.70
39095;DHT22;24840;47.508;19.376;2023-07-31T12:15:45;32.10;58.10
39095;DHT22;24840;47.508;19.376;2023-07-31T12:18:12;32.90;59.30
39095;DHT22;24840;47.508;19.376;2023-07-31T12:20:40;33.60;58.40
39095;DHT22;24840;47.508;19.376;2023-07-31T12:23:07;33.00;55.10
39095;DHT22;24840;47.508;19.376;2023-07-31T12:25:33;32.70;58.10
39095;DHT22;24840;47.508;19.376;2023-07-31T12:28:05;33.10;57.90
39095;DHT22;24840;47.508;19.376;2023-07-31T12:30:32;33.30;55.80
39095;DHT22;24840;47.508;19.376;2023-07-31T12:35:37;33.30;54.20
39095;DHT22;24840;47.508;19.376;2023-07-31T12:38:03;33.20;53.40
39095;DHT22;24840;47.508;19.376;2023-07-31T12:40:29;33.20;53.70
39095;DHT22;24840;47.508;19.376;2023-07-31T12:42:54;32.10;54.50
39095;DHT22;24840;47.508;19.376;2023-07-31T12:45:20;32.40;59.80
39095;DHT22;24840;47.508;19.376;2023-07-31T12:47:46;33.50;56.80
39095;DHT22;24840;47.508;19.376;2023-07-31T12:50:12;32.90;58.70
39095;DHT22;24840;47.508;19.376;2023-07-31T12:52:37;31.80;58.60
39095;DHT22;24840;47.508;19.376;2023-07-31T12:55:03;32.00;57.10
39095;DHT22;24840;47.508;19.376;2023-07-31T12:57:30;32.00;58.30
39095;DHT22;24840;47.508;19.376;2023-07-31T12:59:55;32.70;57.40
39095;DHT22;24840;47.508;19.376;2023-07-31T13:02:21;33.10;55.80
39095;DHT22;24840;47.508;19.376;2023-07-31T13:04:47;32.40;54.90
39095;DHT22;24840;47.508;19.376;2023-07-31T13:07:12;32.70;55.90
39095;DHT22;24840;47.508;19.376;2023-07-31T13:09:38;33.00;55.30
39095;DHT22;24840;47.508;19.376;2023-07-31T13:12:04;31.80;56.70
39095;DHT22;24840;47.508;19.376;2023-07-31T13:14:29;31.70;55.80
39095;DHT22;24840;47.508;19.376;2023-07-31T13:16:55;32.00;58.30
39095;DHT22;24840;47.508;19.376;2023-07-31T13:19:20;33.10;55.80
39095;DHT22;24840;47.508;19.376;2023-07-31T13:21:46;33.20;56.50
39095;DHT22;24840;47.508;19.376;2023-07-31T13:24:12;33.00;53.90
39095;DHT22;24840;47.508;19.376;2023-07-31T13:26:37;32.40;56.20
39095;DHT22;24840;47.508;19.376;2023-07-31T13:29:03;32.50;56.20
39095;DHT22;24840;47.508;19.376;2023-07-31T13:31:28;32.60;55.90
39095;DHT22;24840;47.508;19.376;2023-07-31T13:33:54;32.20;56.60
39095;DHT22;24840;47.508;19.376;2023-07-31T13:36:20;33.00;57.40
39095;DHT22;24840;47.508;19.376;2023-07-31T13:38:45;32.10;54.60
39095;DHT22;24840;47.508;19.376;2023-07-31T13:41:11;32.10;55.00
39095;DHT22;24840;47.508;19.376;2023-07-31T13:43:36;33.30;56.10
39095;DHT22;24840;47.508;19.376;2023-07-31T13:46:02;33.20;55.90
39095;DHT22;24840;47.508;19.376;2023-07-31T13:48:35;32.80;53.90
39095;DHT22;24840;47.508;19.376;2023-07-31T13:51:01;32.30;55.70
39095;DHT22;24840;47.508;19.376;2023-07-31T13:53:26;32.50;56.10
39095;DHT22;24840;47.508;19.376;2023-07-31T13:55:52;32.40;56.50
39095;DHT22;24840;47.508;19.376;2023-07-31T13:58:17;32.50;55.10
39095;DHT22;24840;47.508;19.376;2023-07-31T14:00:43;32.10;56.70
39095;DHT22;24840;47.508;19.376;2023-07-31T14:03:09;31.70;54.60
39095;DHT22;24840;47.508;19.376;2023-07-31T14:05:35;31.70;57.00
39095;DHT22;24840;47.508;19.376;2023-07-31T14:08:02;32.70;57.00
39095;DHT22;24840;47.508;19.376;2023-07-31T14:10:27;32.10;56.30
39095;DHT22;24840;47.508;19.376;2023-07-31T14:12:53;31.50;56.80
39095;DHT22;24840;47.508;19.376;2023-07-31T14:15:18;32.00;56.60
39095;DHT22;24840;47.508;19.376;2023-07-31T14:17:44;32.60;57.60
39095;DHT22;24840;47.508;19.376;2023-07-31T14:20:10;32.80;53.80
39095;DHT22;24840;47.508;19.376;2023-07-31T14:22:36;31.90;54.60
39095;DHT22;24840;47.508;19.376;2023-07-31T14:25:03;31.70;55.00
39095;DHT22;24840;47.508;19.376;2023-07-31T14:27:28;30.20;55.90
39095;DHT22;24840;47.508;19.376;2023-07-31T14:29:54;29.90;60.00
39095;DHT22;24840;47.508;19.376;2023-07-31T14:32:20;30.30;60.50
39095;DHT22;24840;47.508;19.376;2023-07-31T14:34:46;30.50;59.50
39095;DHT22;24840;47.508;19.376;2023-07-31T14:37:12;30.60;59.10
39095;DHT22;24840;47.508;19.376;2023-07-31T14:39:37;31.20;59.00
39095;DHT22;24840;47.508;19.376;2023-07-31T14:42:03;30.30;57.50
39095;DHT22;24840;47.508;19.376;2023-07-31T14:44:28;29.50;59.60
39095;DHT22;24840;47.508;19.376;2023-07-31T14:46:54;29.50;60.20
39095;DHT22;24840;47.508;19.376;2023-07-31T14:49:20;29.70;61.60
39095;DHT22;24840;47.508;19.376;2023-07-31T14:51:45;29.40;60.10
39095;DHT22;24840;47.508;19.376;2023-07-31T14:54:11;28.60;60.00
39095;DHT22;24840;47.508;19.376;2023-07-31T14:56:36;28.10;61.70
39095;DHT22;24840;47.508;19.376;2023-07-31T14:59:02;28.10;64.10
39095;DHT22;24840;47.508;19.376;2023-07-31T15:01:28;28.30;64.00
39095;DHT22;24840;47.508;19.376;2023-07-31T15:03:53;28.30;63.50
39095;DHT22;24840;47.508;19.376;2023-07-31T15:06:19;28.10;62.70
39095;DHT22;24840;47.508;19.376;2023-07-31T15:08:44;28.20;63.50
39095;DHT22;24840;47.508;19.376;2023-07-31T15:11:10;28.50;61.40
39095;DHT22;24840;47.508;19.376;2023-07-31T15:13:36;28.40;60.40
39095;DHT22;24840;47.508;19.376;2023-07-31T15:16:01;28.20;61.70
39095;DHT22;24840;47.508;19.376;2023-07-31T15:18:27;28.50;62.70
39095;DHT22;24840;47.508;19.376;2023-07-31T15:20:53;28.60;61.90
39095;DHT22;24840;47.508;19.376;2023-07-31T15:23:19;28.90;60.60